createdAt,value
2019-05-06T00:01:55.118Z,91.90
2019-05-06T00:04:26.322Z,92.00
2019-05-06T00:06:56.433Z,91.50
2019-05-06T00:09:26.431Z,91.60
2019-05-06T00:11:56.410Z,91.70
2019-05-06T00:14:26.552Z,91.60
2019-05-06T00:16:58.621Z,91.80
2019-05-06T00:19:28.523Z,91.80
2019-05-06T00:21:58.532Z,92.00
2019-05-06T00:24:30.198Z,92.00
2019-05-06T00:27:07.920Z,92.00
2019-05-06T00:29:51.097Z,92.40
2019-05-06T00:32:21.022Z,92.30
2019-05-06T00:34:50.907Z,92.20
2019-05-06T00:37:21.000Z,92.10
2019-05-06T00:40:01.355Z,91.80
2019-05-06T00:42:34.857Z,91.80
2019-05-06T00:45:06.930Z,91.90
2019-05-06T00:47:37.038Z,91.80
2019-05-06T00:50:07.938Z,91.60
2019-05-06T00:52:53.827Z,91.70
2019-05-06T00:55:24.158Z,91.60
2019-05-06T00:57:54.534Z,91.80
2019-05-06T01:00:26.762Z,92.20
2019-05-06T01:02:56.807Z,92.20
2019-05-06T01:05:26.945Z,92.40
2019-05-06T01:07:57.115Z,92.70
2019-05-06T01:10:27.518Z,92.90
2019-05-06T01:13:14.591Z,92.70
2019-05-06T01:15:45.383Z,92.60
2019-05-06T01:18:16.459Z,92.50
2019-05-06T01:20:46.594Z,92.40
2019-05-06T01:23:16.659Z,92.60
2019-05-06T01:25:48.174Z,92.40
2019-05-06T01:28:37.511Z,92.10
2019-05-06T01:31:07.970Z,92.00
2019-05-06T01:33:38.039Z,91.90
2019-05-06T01:36:08.161Z,91.90
2019-05-06T01:38:39.925Z,91.90
2019-05-06T01:41:13.504Z,91.60
2019-05-06T01:43:44.782Z,91.50
2019-05-06T01:46:14.886Z,91.50
2019-05-06T01:48:48.032Z,91.30
2019-05-06T01:54:15.075Z,91.10
2019-05-06T01:56:45.192Z,91.10
2019-05-06T01:59:15.382Z,91.30
2019-05-06T02:01:56.892Z,91.40
2019-05-06T02:04:19.031Z,91.20
2019-05-06T02:06:48.964Z,91.30
2019-05-06T02:09:19.069Z,91.40
2019-05-06T02:11:49.139Z,91.40
2019-05-06T02:14:19.287Z,91.40
2019-05-06T02:16:49.324Z,91.40
2019-05-06T02:19:19.755Z,91.50
2019-05-06T02:21:51.775Z,91.70
2019-05-06T02:24:35.666Z,91.60
2019-05-06T02:27:06.930Z,91.40
2019-05-06T02:29:57.852Z,91.50
2019-05-06T02:32:36.094Z,91.50
2019-05-06T02:35:17.807Z,91.30
2019-05-06T02:37:49.178Z,91.50
2019-05-06T02:40:24.658Z,91.50
2019-05-06T02:42:54.625Z,91.50
2019-05-06T02:45:25.884Z,91.50
2019-05-06T02:48:13.990Z,91.40
2019-05-06T02:50:46.143Z,91.40
2019-05-06T02:53:19.302Z,91.40
2019-05-06T02:56:04.009Z,91.50
2019-05-06T02:58:34.332Z,91.10
2019-05-06T03:01:04.424Z,91.20
2019-05-06T03:03:34.530Z,91.40
2019-05-06T03:06:04.830Z,91.40
2019-05-06T03:08:34.815Z,91.40
2019-05-06T03:11:04.893Z,91.50
2019-05-06T03:13:36.590Z,91.70
2019-05-06T03:16:06.526Z,91.70
2019-05-06T03:18:37.822Z,91.80
2019-05-06T03:21:27.916Z,91.60
2019-05-06T03:24:04.013Z,91.50
2019-05-06T03:26:34.024Z,91.50
2019-05-06T03:29:04.116Z,91.40
2019-05-06T03:31:36.390Z,91.80
2019-05-06T03:34:49.713Z,91.50
2019-05-06T03:36:56.721Z,91.50
2019-05-06T03:39:46.358Z,91.40
2019-05-06T03:42:17.083Z,91.50
2019-05-06T03:44:48.803Z,91.40
2019-05-06T03:47:25.989Z,91.50
2019-05-06T03:49:56.094Z,91.70
2019-05-06T03:52:33.846Z,91.60
2019-05-06T03:55:03.963Z,91.70
2019-05-06T03:57:36.112Z,91.50
2019-05-06T04:00:13.016Z,91.70
2019-05-06T04:02:43.459Z,91.80
2019-05-06T04:05:13.714Z,91.80
2019-05-06T04:07:45.960Z,91.80
2019-05-06T04:10:16.370Z,91.70
2019-05-06T04:12:48.040Z,91.70
2019-05-06T04:15:18.312Z,91.60
2019-05-06T04:17:53.523Z,91.60
2019-05-06T04:20:39.480Z,91.40
2019-05-06T04:23:23.534Z,91.20
2019-05-06T04:26:07.315Z,91.20
2019-05-06T04:28:38.784Z,91.10
2019-05-06T04:31:08.786Z,91.20
2019-05-06T04:33:38.904Z,90.90
2019-05-06T04:36:09.072Z,91.20
2019-05-06T04:38:39.190Z,91.00
2019-05-06T04:41:09.263Z,90.90
2019-05-06T04:43:39.380Z,90.90
2019-05-06T04:46:10.084Z,90.80
2019-05-06T04:48:43.213Z,90.80
2019-05-06T04:51:13.618Z,90.80
2019-05-06T04:53:44.513Z,90.60
2019-05-06T04:56:14.714Z,90.70
2019-05-06T04:58:45.314Z,90.70
2019-05-06T05:01:15.908Z,90.50
2019-05-06T05:03:46.496Z,90.70
2019-05-06T05:06:16.551Z,90.60
2019-05-06T05:08:46.620Z,90.60
2019-05-06T05:11:33.423Z,90.40
2019-05-06T05:14:05.199Z,90.20
2019-05-06T05:16:36.956Z,90.30
2019-05-06T05:19:12.164Z,90.00
2019-05-06T05:21:42.927Z,89.90
2019-05-06T05:24:13.575Z,89.80
2019-05-06T05:26:46.945Z,90.00
2019-05-06T05:29:15.575Z,90.10
2019-05-06T05:31:45.815Z,90.00
2019-05-06T05:34:16.219Z,89.90
2019-05-06T05:36:46.348Z,89.50
2019-05-06T05:39:16.447Z,89.10
2019-05-06T05:41:46.519Z,88.80
2019-05-06T05:44:22.772Z,89.00
2019-05-06T05:46:52.889Z,88.90
2019-05-06T05:49:36.373Z,89.20
2019-05-06T05:54:47.755Z,89.60
2019-05-06T05:57:18.031Z,89.30
2019-05-06T05:59:48.126Z,89.30
2019-05-06T06:02:18.192Z,89.70
2019-05-06T06:05:02.550Z,88.90
2019-05-06T06:07:33.421Z,89.00
2019-05-06T06:10:07.026Z,88.80
2019-05-06T06:12:37.134Z,87.60
2019-05-06T06:15:08.871Z,88.20
2019-05-06T06:20:46.024Z,87.90
2019-05-06T06:23:18.757Z,87.80
2019-05-06T06:25:49.824Z,87.90
2019-05-06T06:28:20.122Z,87.60
2019-05-06T06:31:07.724Z,88.00
2019-05-06T06:33:38.035Z,88.40
2019-05-06T06:36:18.815Z,87.90
2019-05-06T06:38:53.911Z,87.60
2019-05-06T06:41:24.137Z,88.00
2019-05-06T06:44:13.101Z,87.00
2019-05-06T06:46:42.955Z,86.10
2019-05-06T06:49:13.519Z,86.30
2019-05-06T06:51:44.991Z,86.30
2019-05-06T06:54:15.064Z,86.50
2019-05-06T06:56:46.822Z,86.80
2019-05-06T06:59:19.330Z,86.90
2019-05-06T07:02:03.690Z,87.20
2019-05-06T07:04:52.585Z,87.50
2019-05-06T07:07:47.173Z,87.00
2019-05-06T07:10:32.575Z,86.60
2019-05-06T07:13:03.163Z,87.00
2019-05-06T07:15:33.827Z,87.10
2019-05-06T07:18:04.498Z,86.20
2019-05-06T07:20:52.550Z,86.50
2019-05-06T07:23:27.742Z,86.60
2019-05-06T07:25:57.844Z,85.70
2019-05-06T07:31:18.741Z,84.60
2019-05-06T07:33:42.911Z,85.20
2019-05-06T07:36:13.279Z,85.20
2019-05-06T07:38:49.597Z,84.30
2019-05-06T07:41:47.473Z,84.70
2019-05-06T07:44:33.195Z,83.80
2019-05-06T07:47:04.301Z,83.60
2019-05-06T07:49:34.379Z,83.60
2019-05-06T07:52:17.324Z,83.10
2019-05-06T07:54:47.487Z,82.70
2019-05-06T07:57:17.597Z,81.30
2019-05-06T07:59:47.675Z,81.10
2019-05-06T08:02:17.782Z,81.40
2019-05-06T08:04:48.565Z,81.40
2019-05-06T08:07:18.662Z,79.70
2019-05-06T08:09:49.138Z,78.70
2019-05-06T08:12:19.185Z,77.30
2019-05-06T08:14:49.601Z,77.50
2019-05-06T08:17:22.190Z,76.10
2019-05-06T08:19:53.038Z,77.30
2019-05-06T08:22:44.122Z,76.70
2019-05-06T08:25:14.247Z,74.90
2019-05-06T08:27:44.226Z,74.90
2019-05-06T08:30:14.617Z,74.70
2019-05-06T08:32:44.779Z,75.10
2019-05-06T08:35:16.839Z,75.20
2019-05-06T08:38:02.403Z,74.20
2019-05-06T08:40:32.599Z,74.20
2019-05-06T08:43:02.749Z,73.50
2019-05-06T08:45:32.862Z,73.50
2019-05-06T08:48:03.105Z,72.80
2019-05-06T08:50:37.803Z,72.30
2019-05-06T08:53:13.884Z,72.10
2019-05-06T08:55:45.656Z,71.90
2019-05-06T08:58:15.935Z,71.10
2019-05-06T09:00:53.359Z,71.10
2019-05-06T09:03:23.160Z,69.50
2019-05-06T09:05:53.305Z,67.00
2019-05-06T09:08:25.105Z,68.30
2019-05-06T09:10:55.218Z,67.60
2019-05-06T09:13:25.167Z,69.30
2019-05-06T09:15:55.246Z,68.90
2019-05-06T09:18:26.563Z,67.30
2019-05-06T09:21:09.687Z,66.60
2019-05-06T09:23:42.193Z,65.70
2019-05-06T09:26:13.199Z,65.40
2019-05-06T09:28:52.966Z,64.20
2019-05-06T09:31:27.101Z,64.30
2019-05-06T09:33:58.857Z,63.50
2019-05-06T09:36:41.155Z,62.00
2019-05-06T09:39:02.327Z,61.00
2019-05-06T09:41:34.049Z,59.60
2019-05-06T09:44:04.379Z,57.30
2019-05-06T09:46:34.626Z,57.10
2019-05-06T09:49:09.311Z,56.90
2019-05-06T09:51:39.320Z,53.40
2019-05-06T09:54:20.151Z,53.30
2019-05-06T09:56:55.003Z,52.70
2019-05-06T09:59:25.182Z,54.00
2019-05-06T10:01:55.291Z,53.70
2019-05-06T10:04:25.300Z,53.60
2019-05-06T10:06:59.698Z,52.60
2019-05-06T10:09:27.203Z,50.90
2019-05-06T10:11:57.320Z,47.90
2019-05-06T10:17:10.091Z,48.40
2019-05-06T10:19:40.167Z,47.10
2019-05-06T10:22:12.692Z,46.80
2019-05-06T10:24:43.473Z,45.40
2019-05-06T10:27:13.879Z,43.40
2019-05-06T10:29:45.524Z,45.40
2019-05-06T10:32:19.983Z,47.20
2019-05-06T10:34:52.413Z,46.70
2019-05-06T10:37:28.035Z,45.90
2019-05-06T10:40:19.122Z,44.50
2019-05-06T10:43:06.742Z,42.10
2019-05-06T10:45:36.941Z,44.10
2019-05-06T10:48:07.084Z,43.00
2019-05-06T10:50:38.821Z,39.50
2019-05-06T10:53:16.285Z,41.40
2019-05-06T10:55:59.364Z,44.00
2019-05-06T10:58:29.513Z,42.30
2019-05-06T11:01:16.556Z,41.30
2019-05-06T11:03:46.672Z,40.80
2019-05-06T11:06:16.794Z,41.80
2019-05-06T11:08:46.909Z,41.80
2019-05-06T11:11:32.556Z,41.40
2019-05-06T11:13:56.018Z,41.40
2019-05-06T11:16:26.028Z,40.20
2019-05-06T11:19:05.055Z,41.30
2019-05-06T11:21:53.725Z,41.10
2019-05-06T11:24:23.708Z,42.30
2019-05-06T11:26:54.083Z,41.50
2019-05-06T11:29:36.742Z,42.20
2019-05-06T11:32:08.374Z,42.60
2019-05-06T11:34:44.228Z,43.00
2019-05-06T11:37:23.268Z,42.10
2019-05-06T11:40:16.609Z,41.50
2019-05-06T11:42:44.821Z,42.80
2019-05-06T11:45:15.295Z,41.70
2019-05-06T11:47:46.418Z,40.40
2019-05-06T11:50:16.731Z,39.60
2019-05-06T11:52:46.863Z,40.80
2019-05-06T11:55:38.797Z,41.70
2019-05-06T11:58:09.535Z,43.00
2019-05-06T12:00:44.446Z,42.10
2019-05-06T12:03:12.871Z,42.40
2019-05-06T12:06:03.846Z,41.00
2019-05-06T12:08:34.031Z,40.50
2019-05-06T12:11:04.117Z,40.60
2019-05-06T12:13:34.163Z,39.70
2019-05-06T12:16:04.340Z,38.70
2019-05-06T12:18:48.711Z,39.30
2019-05-06T12:21:19.387Z,41.40
2019-05-06T12:23:49.668Z,40.10
2019-05-06T12:26:19.737Z,38.90
2019-05-06T12:28:49.752Z,39.90
2019-05-06T12:31:19.892Z,39.30
2019-05-06T12:33:53.027Z,39.20
2019-05-06T12:36:37.368Z,37.80
2019-05-06T12:39:18.177Z,38.90
2019-05-06T12:42:05.418Z,38.60
2019-05-06T12:44:37.136Z,38.80
2019-05-06T12:47:13.454Z,38.70
2019-05-06T12:49:43.402Z,39.70
2019-05-06T12:52:15.130Z,39.10
2019-05-06T12:54:45.168Z,38.70
2019-05-06T12:57:15.283Z,37.50
2019-05-06T12:59:45.303Z,36.90
2019-05-06T13:02:15.664Z,37.30
2019-05-06T13:04:57.696Z,36.80
2019-05-06T13:07:22.836Z,35.70
2019-05-06T13:09:53.094Z,35.80
2019-05-06T13:12:33.499Z,34.50
2019-05-06T13:15:03.804Z,34.60
2019-05-06T13:17:34.236Z,35.00
2019-05-06T13:20:06.312Z,34.70
2019-05-06T13:22:47.139Z,37.60
2019-05-06T13:25:17.217Z,37.10
2019-05-06T13:27:48.021Z,38.70
2019-05-06T13:30:18.657Z,37.90
2019-05-06T13:32:53.124Z,37.80
2019-05-06T13:35:23.339Z,38.80
2019-05-06T13:37:53.479Z,39.30
2019-05-06T13:40:26.879Z,37.70
2019-05-06T13:43:12.721Z,38.50
2019-05-06T13:45:49.403Z,38.60
2019-05-06T13:48:33.301Z,39.00
2019-05-06T13:51:04.994Z,40.10
2019-05-06T13:53:40.543Z,39.00
2019-05-06T13:56:07.187Z,38.60
2019-05-06T13:58:37.294Z,39.30
2019-05-06T14:01:23.326Z,40.30
2019-05-06T14:03:53.530Z,38.70
2019-05-06T14:06:23.551Z,39.90
2019-05-06T14:08:53.970Z,40.10
2019-05-06T14:11:24.024Z,40.90
2019-05-06T14:16:36.248Z,39.40
2019-05-06T14:19:06.332Z,39.40
2019-05-06T14:21:36.378Z,40.20
2019-05-06T14:24:09.422Z,39.60
2019-05-06T14:26:58.211Z,40.40
2019-05-06T14:29:25.996Z,40.00
2019-05-06T14:31:57.984Z,39.90
2019-05-06T14:34:28.131Z,40.00
2019-05-06T14:36:59.251Z,39.80
2019-05-06T14:39:50.085Z,40.70
2019-05-06T14:42:08.703Z,40.30
2019-05-06T14:44:38.815Z,40.40
2019-05-06T14:47:13.674Z,40.80
2019-05-06T14:49:43.675Z,40.20
2019-05-06T14:52:13.796Z,40.70
2019-05-06T14:54:57.338Z,41.20
2019-05-06T14:57:27.344Z,40.30
2019-05-06T14:59:57.407Z,40.90
2019-05-06T15:02:46.779Z,41.50
2019-05-06T15:05:17.794Z,41.90
2019-05-06T15:08:07.142Z,41.40
2019-05-06T15:10:37.253Z,41.00
2019-05-06T15:13:07.219Z,41.50
2019-05-06T15:15:38.333Z,40.30
2019-05-06T15:18:08.406Z,40.60
2019-05-06T15:20:38.486Z,41.10
2019-05-06T15:23:08.630Z,41.00
2019-05-06T15:25:38.666Z,41.10
2019-05-06T15:28:08.831Z,41.40
2019-05-06T15:30:43.447Z,41.60
2019-05-06T15:33:16.130Z,41.50
2019-05-06T15:36:02.238Z,41.30
2019-05-06T15:38:32.008Z,41.40
2019-05-06T15:41:02.103Z,41.20
2019-05-06T15:43:33.321Z,40.30
2019-05-06T15:46:03.786Z,40.70
2019-05-06T15:48:33.997Z,40.90
2019-05-06T15:51:04.567Z,41.40
2019-05-06T15:53:34.671Z,41.80
2019-05-06T15:56:18.686Z,41.60
2019-05-06T15:58:48.628Z,41.70
2019-05-06T16:01:38.128Z,42.10
2019-05-06T16:06:52.915Z,42.10
2019-05-06T16:09:23.450Z,42.10
2019-05-06T16:11:53.875Z,41.80
2019-05-06T16:14:24.079Z,41.40
2019-05-06T16:19:37.464Z,42.00
2019-05-06T16:22:07.601Z,43.10
2019-05-06T16:24:48.167Z,42.80
2019-05-06T16:27:18.267Z,44.10
2019-05-06T16:29:48.639Z,43.60
2019-05-06T16:32:18.711Z,43.00
2019-05-06T16:34:48.846Z,43.00
2019-05-06T16:37:18.923Z,42.00
2019-05-06T16:39:48.976Z,42.60
2019-05-06T16:42:19.087Z,42.30
2019-05-06T16:44:52.240Z,42.90
2019-05-06T16:47:37.707Z,43.40
2019-05-06T16:50:13.011Z,42.90
2019-05-06T16:52:45.327Z,43.60
2019-05-06T16:55:24.398Z,44.20
2019-05-06T16:57:58.992Z,43.90
2019-05-06T17:00:32.069Z,43.70
2019-05-06T17:03:03.925Z,43.80
2019-05-06T17:05:35.675Z,43.80
2019-05-06T17:08:05.840Z,44.10
2019-05-06T17:10:35.942Z,44.20
2019-05-06T17:13:19.095Z,44.50
2019-05-06T17:15:52.800Z,44.20
2019-05-06T17:18:41.909Z,44.60
2019-05-06T17:21:13.126Z,44.90
2019-05-06T17:23:43.326Z,45.20
2019-05-06T17:26:14.253Z,45.30
2019-05-06T17:29:04.483Z,44.90
2019-05-06T17:31:47.875Z,44.70
2019-05-06T17:34:25.955Z,44.70
2019-05-06T17:36:57.727Z,44.80
2019-05-06T17:39:27.872Z,44.30
2019-05-06T17:41:57.851Z,46.20
2019-05-06T17:44:27.903Z,46.60
2019-05-06T17:47:02.758Z,47.30
2019-05-06T17:49:35.638Z,47.60
2019-05-06T17:52:16.321Z,48.10
2019-05-06T17:54:46.415Z,48.70
2019-05-06T17:57:16.654Z,49.00
2019-05-06T17:59:46.799Z,49.50
2019-05-06T18:02:19.241Z,49.60
2019-05-06T18:04:49.745Z,50.00
2019-05-06T18:07:22.302Z,49.60
2019-05-06T18:09:52.355Z,49.90
2019-05-06T18:12:23.357Z,50.20
2019-05-06T18:14:53.614Z,50.20
2019-05-06T18:17:27.375Z,51.00
2019-05-06T18:19:57.481Z,51.00
2019-05-06T18:22:27.616Z,50.90
2019-05-06T18:24:57.738Z,51.20
2019-05-06T18:27:47.092Z,51.10
2019-05-06T18:30:24.954Z,51.30
2019-05-06T18:32:49.326Z,51.10
2019-05-06T18:35:19.439Z,51.60
2019-05-06T18:37:49.475Z,51.90
2019-05-06T18:40:19.617Z,52.40
2019-05-06T18:42:52.502Z,52.60
2019-05-06T18:45:22.731Z,52.80
2019-05-06T18:47:53.189Z,53.10
2019-05-06T18:50:23.409Z,53.60
2019-05-06T18:52:53.525Z,53.10
2019-05-06T18:55:23.667Z,53.30
2019-05-06T18:57:53.859Z,53.20
2019-05-06T19:00:44.711Z,51.40
2019-05-06T19:03:14.954Z,52.20
2019-05-06T19:05:45.655Z,52.60
2019-05-06T19:08:29.757Z,53.10
2019-05-06T19:11:02.340Z,53.20
2019-05-06T19:13:33.425Z,53.90
2019-05-06T19:16:03.776Z,53.20
2019-05-06T19:18:33.878Z,53.00
2019-05-06T19:21:04.226Z,53.10
2019-05-06T19:23:34.385Z,52.90
2019-05-06T19:26:04.627Z,53.10
2019-05-06T19:28:34.673Z,53.10
2019-05-06T19:31:04.826Z,53.40
2019-05-06T19:33:35.007Z,53.00
2019-05-06T19:36:05.756Z,53.70
2019-05-06T19:38:35.959Z,54.00
2019-05-06T19:41:06.067Z,54.40
2019-05-06T19:43:36.156Z,54.40
2019-05-06T19:46:06.351Z,54.80
2019-05-06T19:48:36.419Z,55.30
2019-05-06T19:51:06.502Z,55.70
2019-05-06T19:53:36.770Z,55.70
2019-05-06T19:56:07.196Z,55.50
2019-05-06T19:58:37.412Z,56.50
2019-05-06T20:01:07.522Z,57.40
2019-05-06T20:03:37.889Z,58.50
2019-05-06T20:06:09.785Z,59.20
2019-05-06T20:08:42.119Z,59.10
2019-05-06T20:11:26.262Z,58.90
2019-05-06T20:13:56.330Z,59.10
2019-05-06T20:16:26.366Z,59.60
2019-05-06T20:18:56.523Z,60.00
2019-05-06T20:21:26.633Z,60.20
2019-05-06T20:23:56.768Z,60.80
2019-05-06T20:26:26.903Z,61.70
2019-05-06T20:28:57.101Z,61.60
2019-05-06T20:31:27.254Z,61.20
2019-05-06T20:33:57.459Z,60.30
2019-05-06T20:36:27.558Z,60.00
2019-05-06T20:38:57.597Z,59.60
2019-05-06T20:41:27.692Z,59.90
2019-05-06T20:43:57.870Z,59.90
2019-05-06T20:46:27.917Z,60.10
2019-05-06T20:48:58.022Z,60.90
2019-05-06T20:51:28.197Z,60.70
2019-05-06T20:53:58.273Z,59.40
2019-05-06T20:56:28.453Z,59.00
2019-05-06T20:58:58.499Z,58.60
2019-05-06T21:01:28.581Z,59.60
2019-05-06T21:03:58.585Z,59.80
2019-05-06T21:06:28.631Z,59.40
2019-05-06T21:08:58.740Z,59.50
2019-05-06T21:11:29.432Z,59.70
2019-05-06T21:14:02.260Z,61.50
2019-05-06T21:16:32.339Z,61.30
2019-05-06T21:19:03.201Z,61.10
2019-05-06T21:21:33.243Z,62.10
2019-05-06T21:24:03.412Z,61.90
2019-05-06T21:26:34.383Z,62.10
2019-05-06T21:29:04.459Z,62.60
2019-05-06T21:31:34.514Z,62.80
2019-05-06T21:34:04.598Z,62.50
2019-05-06T21:36:34.611Z,62.00
2019-05-06T21:39:06.927Z,61.80
2019-05-06T21:41:37.108Z,61.60
2019-05-06T21:44:07.342Z,61.10
2019-05-06T21:46:37.442Z,61.40
2019-05-06T21:49:07.639Z,63.20
2019-05-06T21:51:37.792Z,62.40
2019-05-06T21:54:07.920Z,60.90
2019-05-06T21:56:38.003Z,60.20
2019-05-06T21:59:08.015Z,61.70
2019-05-06T22:01:38.696Z,62.60
2019-05-06T22:04:08.923Z,62.30
2019-05-06T22:06:38.955Z,61.40
2019-05-06T22:09:09.407Z,61.20
2019-05-06T22:11:42.135Z,61.40
2019-05-06T22:14:12.246Z,61.70
2019-05-06T22:16:43.699Z,63.70
2019-05-06T22:19:13.925Z,62.20
2019-05-06T22:22:03.344Z,62.80
2019-05-06T22:24:44.536Z,61.30
2019-05-06T22:27:15.222Z,61.10
2019-05-06T22:29:45.263Z,61.60
2019-05-06T22:32:15.503Z,61.80
2019-05-06T22:34:45.631Z,59.60
2019-05-06T22:37:15.741Z,55.80
2019-05-06T22:39:45.863Z,54.40
2019-05-06T22:42:15.884Z,50.30
2019-05-06T22:44:45.926Z,49.00
2019-05-06T22:47:16.974Z,50.10
2019-05-06T22:49:47.027Z,52.30
2019-05-06T22:52:17.215Z,50.60
2019-05-06T22:54:47.219Z,50.10
2019-05-06T22:57:17.271Z,51.20
2019-05-06T22:59:47.279Z,52.40
2019-05-06T23:02:18.922Z,53.90
2019-05-06T23:04:52.872Z,54.60
2019-05-06T23:07:22.574Z,54.60
2019-05-06T23:09:52.603Z,54.60
2019-05-06T23:12:23.187Z,54.20
2019-05-06T23:14:53.202Z,54.00
2019-05-06T23:17:23.211Z,53.00
2019-05-06T23:19:54.166Z,52.00
2019-05-06T23:22:24.171Z,51.20
2019-05-06T23:24:54.295Z,48.90
2019-05-06T23:27:24.331Z,48.60
2019-05-06T23:29:54.538Z,47.90
2019-05-06T23:32:24.597Z,47.90
2019-05-06T23:34:54.607Z,48.60
2019-05-06T23:37:23.635Z,50.20
2019-05-06T23:40:33.083Z,50.50
2019-05-06T23:43:39.075Z,51.40
2019-05-06T23:46:44.974Z,52.40
2019-05-06T23:49:52.706Z,52.00
2019-05-06T23:52:58.788Z,52.10
2019-05-06T23:56:04.903Z,52.50
2019-05-06T23:58:34.979Z,53.30
